• Join FlightAware (Why Join?)
  • Login
  • US Flag 
01:32AM EDT


 

Airport Tracker/Info


-or-


 

Live Flight TrackerFlight Track Log ✈ UPS416 ✈ 24-Nov-2013 ✈ KMIA - SBKP / VCP

Flight Track Log - Related Links

Times and Time Zones

All times are in EST time to prevent confusion due to time zone crossing. See the UPS416 flight status page for this flight to view local times or setup timezone preferences in your user account.

Time Position Orientation Groundspeed Altitude Reporting Facility
EST Latitude Longitude Course Direction KTS MPH feet Rate Location/Type
07:48AM 25.7833 -80.2808 114° Southeast 184 212 700  Level Miami Center
07:50AM 25.7497 -80.1969 114° Southeast 263 303 2,900 1,860 Climbing Miami Center
07:51AM 25.7306 -80.1203 105° East 280 322 5,000 2,700 Climbing Miami Center
07:51AM 25.7244 -80.1156 145° Southeast 288 331 5,700 2,100 Climbing Miami Center
07:52AM 25.7117 -80.0344 100° East 327 376 7,100 1,980 Climbing Miami Center
07:53AM 25.6908 -79.9278 102° East 342 394 9,600 2,520 Climbing Miami Center
07:54AM 25.6661 -79.8119 103° East 362 417 12,200 2,460 Climbing Miami Center
07:55AM 25.6414 -79.6939 103° East 381 438 14,600 2,340 Climbing Miami Center
07:56AM 25.6144 -79.5689 103° East 394 453 16,900 2,100 Climbing Miami Center
07:57AM 25.5833 -79.4439 105° East 414 476 18,800 1,860 Climbing Miami Center
07:58AM 25.4886 -79.3567 140° Southeast 414 476 20,700 1,800 Climbing Miami Center
07:59AM 25.3728 -79.2897 152° Southeast 438 504 22,400 1,800 Climbing Miami Center
08:00AM 25.2589 -79.2186 151° Southeast 451 519 24,300 1,800 Climbing Miami Center
08:01AM 25.1450 -79.1500 151° Southeast 462 532 26,000 1,560 Climbing Miami Center
08:02AM 25.0292 -79.0767 150° Southeast 468 539 27,500 1,440 Climbing Miami Center
08:03AM 24.9092 -79.0058 152° Southeast 474 545 28,900 840 Climbing Miami Center
08:04AM 24.7889 -78.9372 153° Southeast 479 551 29,200 900 Climbing Miami Center
08:05AM 24.6686 -78.8619 150° Southeast 479 551 30,800 900 Climbing Miami Center
08:06AM 24.5483 -78.7917 152° Southeast 479 551 31,000 60 Climbing Miami Center
08:07AM 24.4303 -78.7189 151° Southeast 486 559 31,000  Level Miami Center
08:08AM 24.3078 -78.6464 152° Southeast 491 565 31,000  Level Miami Center
08:09AM 24.1894 -78.5764 152° Southeast 491 565 31,000  Level Miami Center
08:10AM 24.0692 -78.5019 151° Southeast 491 565 31,000  Level Miami Center
08:12AM 23.8745 -78.3515 145° Southeast  Level Estimated
08:19AM 23.1019 -77.7596 145° Southeast  Level Estimated
08:20AM 22.9913 -77.6756 145° Southeast  Level Estimated
08:21AM 22.8807 -77.5917 145° Southeast  Level Estimated
08:22AM 22.7701 -77.5080 145° Southeast  Level Estimated
08:23AM 22.6594 -77.4244 145° Southeast  Level Estimated
08:24AM 22.5487 -77.3410 145° Southeast  Level Estimated
08:25AM 22.4379 -77.2577 145° Southeast  Level Estimated
08:26AM 22.3271 -77.1745 145° Southeast  Level Estimated
08:27AM 22.2162 -77.0914 145° Southeast  Level Estimated
08:28AM 22.1053 -77.0085 145° Southeast  Level Estimated
08:29AM 21.9944 -76.9257 145° Southeast  Level Estimated
08:30AM 21.8834 -76.8431 145° Southeast  Level Estimated
08:31AM 21.7724 -76.7605 145° Southeast  Level Estimated
08:32AM 21.6613 -76.6781 145° Southeast  Level Estimated
08:33AM 21.5502 -76.5958 145° Southeast  Level Estimated
08:34AM 21.4390 -76.5137 145° Southeast  Level Estimated
08:35AM 21.3278 -76.4317 145° Southeast  Level Estimated
08:36AM 21.2166 -76.3498 146° Southeast  Level Estimated
08:37AM 21.1053 -76.2680 146° Southeast  Level Estimated
08:38AM 20.9940 -76.1863 146° Southeast  Level Estimated
08:39AM 20.8827 -76.1048 146° Southeast  Level Estimated
08:40AM 20.7713 -76.0234 146° Southeast  Level Estimated
08:41AM 20.6599 -75.9421 146° Southeast  Level Estimated
08:42AM 20.5484 -75.8609 146° Southeast  Level Estimated
08:43AM 20.4369 -75.7799 146° Southeast  Level Estimated
08:44AM 20.3254 -75.6989 146° Southeast  Level Estimated
08:45AM 20.2138 -75.6181 146° Southeast  Level Estimated
08:46AM 20.1022 -75.5374 146° Southeast  Level Estimated
08:47AM 19.9905 -75.4568 146° Southeast  Level Estimated
08:48AM 19.8789 -75.3763 146° Southeast  Level Estimated
08:49AM 19.7672 -75.2960 146° Southeast  Level Estimated
08:50AM 19.6554 -75.2157 146° Southeast  Level Estimated
08:51AM 19.5436 -75.1356 146° Southeast  Level Estimated
08:52AM 19.4318 -75.0555 146° Southeast  Level Estimated
08:53AM 19.3199 -74.9756 146° Southeast  Level Estimated
08:54AM 19.2080 -74.8958 146° Southeast  Level Estimated
08:55AM 19.0961 -74.8161 146° Southeast  Level Estimated
08:56AM 18.9841 -74.7365 146° Southeast  Level Estimated
08:57AM 18.8721 -74.6570 146° Southeast  Level Estimated
08:58AM 18.7601 -74.5777 146° Southeast  Level Estimated
08:59AM 18.6480 -74.4984 146° Southeast  Level Estimated
09:00AM 18.5359 -74.4192 146° Southeast  Level Estimated
09:01AM 18.4238 -74.3401 146° Southeast  Level Estimated
09:02AM 18.3116 -74.2612 146° Southeast  Level Estimated
09:03AM 18.1994 -74.1823 146° Southeast  Level Estimated
09:04AM 18.0872 -74.1036 146° Southeast  Level Estimated
09:05AM 17.9750 -74.0249 146° Southeast  Level Estimated
09:06AM 17.8627 -73.9464 146° Southeast  Level Estimated
09:07AM 17.7503 -73.8679 146° Southeast  Level Estimated
09:08AM 17.6380 -73.7895 146° Southeast  Level Estimated
09:09AM 17.5256 -73.7113 146° Southeast  Level Estimated
09:10AM 17.4132 -73.6331 146° Southeast  Level Estimated
09:11AM 17.3007 -73.5550 146° Southeast  Level Estimated
09:12AM 17.1882 -73.4771 146° Southeast  Level Estimated
09:13AM 17.0757 -73.3992 147° Southeast  Level Estimated
09:14AM 16.9632 -73.3214 147° Southeast  Level Estimated
09:15AM 16.8506 -73.2437 147° Southeast  Level Estimated
09:16AM 16.7380 -73.1661 147° Southeast  Level Estimated
09:17AM 16.6254 -73.0886 147° Southeast  Level Estimated
09:18AM 16.5128 -73.0112 147° Southeast  Level Estimated
09:19AM 16.4001 -72.9338 147° Southeast  Level Estimated
09:20AM 16.2874 -72.8566 147° Southeast  Level Estimated
09:21AM 16.1746 -72.7794 147° Southeast  Level Estimated
09:22AM 16.0619 -72.7024 147° Southeast  Level Estimated
09:23AM 15.9491 -72.6254 147° Southeast  Level Estimated
09:24AM 15.8363 -72.5485 147° Southeast  Level Estimated
09:25AM 15.7234 -72.4717 147° Southeast  Level Estimated
09:26AM 15.6105 -72.3950 147° Southeast  Level Estimated
09:27AM 15.4976 -72.3184 147° Southeast  Level Estimated
09:28AM 15.3847 -72.2418 147° Southeast  Level Estimated
09:29AM 15.2718 -72.1654 147° Southeast  Level Estimated
09:30AM 15.1588 -72.0890 147° Southeast  Level Estimated
09:31AM 15.0458 -72.0127 147° Southeast  Level Estimated
09:32AM 14.9327 -71.9365 147° Southeast  Level Estimated
09:33AM 14.8197 -71.8603 147° Southeast  Level Estimated
09:34AM 14.7066 -71.7843 147° Southeast  Level Estimated
09:35AM 14.5935 -71.7083 147° Southeast  Level Estimated
09:36AM 14.4804 -71.6324 147° Southeast  Level Estimated
09:37AM 14.3672 -71.5566 147° Southeast  Level Estimated
09:38AM 14.2541 -71.4808 147° Southeast  Level Estimated
09:39AM 14.1409 -71.4051 147° Southeast  Level Estimated
09:40AM 14.0276 -71.3295 147° Southeast  Level Estimated
09:41AM 13.9144 -71.2540 147° Southeast  Level Estimated
09:42AM 13.8011 -71.1786 147° Southeast  Level Estimated
09:43AM 13.6878 -71.1032 147° Southeast  Level Estimated
09:44AM 13.5745 -71.0279 147° Southeast  Level Estimated
09:45AM 13.4612 -70.9527 147° Southeast  Level Estimated
09:46AM 13.3478 -70.8775 147° Southeast  Level Estimated
09:47AM 13.2344 -70.8024 147° Southeast  Level Estimated
09:48AM 13.1210 -70.7274 147° Southeast  Level Estimated
09:49AM 13.0076 -70.6524 147° Southeast  Level Estimated
09:50AM 12.8941 -70.5776 147° Southeast  Level Estimated
09:51AM 12.7807 -70.5027 147° Southeast  Level Estimated
09:52AM 12.6672 -70.4280 147° Southeast  Level Estimated
09:53AM 12.5536 -70.3533 147° Southeast  Level Estimated
09:54AM 12.4401 -70.2787 147° Southeast  Level Estimated
09:55AM 12.3266 -70.2041 147° Southeast  Level Estimated
09:56AM 12.2130 -70.1297 147° Southeast  Level Estimated
09:57AM 12.0994 -70.0552 147° Southeast  Level Estimated
09:58AM 11.9858 -69.9809 147° Southeast  Level Estimated
09:59AM 11.8722 -69.9066 147° Southeast  Level Estimated
10:00AM 11.7585 -69.8324 147° Southeast  Level Estimated
10:01AM 11.6448 -69.7582 147° Southeast  Level Estimated
10:02AM 11.5312 -69.6841 147° Southeast  Level Estimated
10:03AM 11.4174 -69.6100 147° Southeast  Level Estimated
10:04AM 11.3037 -69.5360 147° Southeast  Level Estimated
10:05AM 11.1900 -69.4621 147° Southeast  Level Estimated
10:06AM 11.0762 -69.3882 147° Southeast  Level Estimated
10:07AM 10.9624 -69.3144 148° Southeast  Level Estimated
10:08AM 10.8486 -69.2406 148° Southeast  Level Estimated
10:09AM 10.7348 -69.1669 148° Southeast  Level Estimated
10:10AM 10.6210 -69.0933 148° Southeast  Level Estimated
10:11AM 10.5071 -69.0197 148° Southeast  Level Estimated
10:12AM 10.3933 -68.9462 148° Southeast  Level Estimated
10:13AM 10.2794 -68.8727 148° Southeast  Level Estimated
10:14AM 10.1655 -68.7992 148° Southeast  Level Estimated
10:15AM 10.0515 -68.7259 148° Southeast  Level Estimated
10:16AM 9.9376 -68.6525 148° Southeast  Level Estimated
10:17AM 9.8237 -68.5792 148° Southeast  Level Estimated
10:18AM 9.7097 -68.5060 148° Southeast  Level Estimated
10:19AM 9.5957 -68.4328 148° Southeast  Level Estimated
10:20AM 9.4817 -68.3597 148° Southeast  Level Estimated
10:21AM 9.3677 -68.2866 148° Southeast  Level Estimated
10:22AM 9.2537 -68.2136 148° Southeast  Level Estimated
10:23AM 9.1396 -68.1406 148° Southeast  Level Estimated
10:24AM 9.0256 -68.0677 148° Southeast  Level Estimated
10:25AM 8.9115 -67.9948 148° Southeast  Level Estimated
10:26AM 8.7974 -67.9219 148° Southeast  Level Estimated
10:27AM 8.6833 -67.8491 148° Southeast  Level Estimated
10:28AM 8.5692 -67.7764 148° Southeast  Level Estimated
10:29AM 8.4551 -67.7037 148° Southeast  Level Estimated
10:30AM 8.3409 -67.6310 148° Southeast  Level Estimated
10:31AM 8.2268 -67.5583 148° Southeast  Level Estimated
10:32AM 8.1126 -67.4858 148° Southeast  Level Estimated
10:33AM 7.9984 -67.4132 148° Southeast  Level Estimated
10:34AM 7.8842 -67.3407 148° Southeast  Level Estimated
10:35AM 7.7700 -67.2682 148° Southeast  Level Estimated
10:36AM 7.6558 -67.1958 148° Southeast  Level Estimated
10:37AM 7.5416 -67.1234 148° Southeast  Level Estimated
10:38AM 7.4273 -67.0511 148° Southeast  Level Estimated
10:39AM 7.3131 -66.9788 148° Southeast  Level Estimated
10:40AM 7.1988 -66.9065 148° Southeast  Level Estimated
10:41AM 7.0845 -66.8342 148° Southeast  Level Estimated
10:42AM 6.9703 -66.7620 148° Southeast  Level Estimated
10:43AM 6.8559 -66.6899 148° Southeast  Level Estimated
10:44AM 6.7416 -66.6177 148° Southeast  Level Estimated
10:45AM 6.6273 -66.5456 148° Southeast  Level Estimated
10:46AM 6.5130 -66.4736 148° Southeast  Level Estimated
10:47AM 6.3987 -66.4016 148° Southeast  Level Estimated
10:48AM 6.2843 -66.3296 148° Southeast  Level Estimated
10:49AM 6.1699 -66.2576 148° Southeast  Level Estimated
10:50AM 6.0556 -66.1856 148° Southeast  Level Estimated
10:51AM 5.9412 -66.1137 148° Southeast  Level Estimated
10:52AM 5.8268 -66.0418 148° Southeast  Level Estimated
10:53AM 5.7124 -65.9700 148° Southeast  Level Estimated
10:54AM 5.5980 -65.8982 148° Southeast  Level Estimated
10:55AM 5.4836 -65.8264 148° Southeast  Level Estimated
10:56AM 5.3692 -65.7546 148° Southeast  Level Estimated
10:57AM 5.2547 -65.6829 148° Southeast  Level Estimated
10:58AM 5.1403 -65.6112 148° Southeast  Level Estimated
10:59AM 5.0258 -65.5395 148° Southeast  Level Estimated
11:00AM 4.9114 -65.4678 148° Southeast  Level Estimated
11:01AM 4.7969 -65.3962 148° Southeast  Level Estimated
11:02AM 4.6824 -65.3246 148° Southeast  Level Estimated
11:03AM 4.5680 -65.2530 148° Southeast  Level Estimated
11:04AM 4.4535 -65.1814 148° Southeast  Level Estimated
11:05AM 4.3390 -65.1099 148° Southeast  Level Estimated
11:06AM 4.2245 -65.0384 148° Southeast  Level Estimated
11:07AM 4.1100 -64.9669 148° Southeast  Level Estimated
11:08AM 3.9955 -64.8954 148° Southeast  Level Estimated
11:09AM 3.8809 -64.8240 148° Southeast  Level Estimated
11:10AM 3.7664 -64.7525 148° Southeast  Level Estimated
11:11AM 3.6519 -64.6811 148° Southeast  Level Estimated
11:12AM 3.5374 -64.6097 148° Southeast  Level Estimated
11:13AM 3.4228 -64.5383 148° Southeast  Level Estimated
11:14AM 3.3083 -64.4669 148° Southeast  Level Estimated
11:15AM 3.1937 -64.3956 148° Southeast  Level Estimated
11:16AM 3.0792 -64.3243 148° Southeast  Level Estimated
11:17AM 2.9646 -64.2529 148° Southeast  Level Estimated
11:18AM 2.8500 -64.1816 148° Southeast  Level Estimated
11:19AM 2.7355 -64.1104 148° Southeast  Level Estimated
11:20AM 2.6209 -64.0391 148° Southeast  Level Estimated
11:21AM 2.5063 -63.9678 148° Southeast  Level Estimated
11:22AM 2.3917 -63.8966 148° Southeast  Level Estimated
11:23AM 2.2771 -63.8253 148° Southeast  Level Estimated
11:24AM 2.1625 -63.7541 148° Southeast  Level Estimated
11:25AM 2.0480 -63.6829 148° Southeast  Level Estimated
11:26AM 1.9334 -63.6117 148° Southeast  Level Estimated
11:27AM 1.8188 -63.5405 148° Southeast  Level Estimated
11:28AM 1.7042 -63.4693 148° Southeast  Level Estimated
11:29AM 1.5896 -63.3981 148° Southeast  Level Estimated
11:30AM 1.4749 -63.3269 148° Southeast  Level Estimated
11:31AM 1.3603 -63.2558 148° Southeast  Level Estimated
11:32AM 1.2457 -63.1846 148° Southeast  Level Estimated
11:33AM 1.1311 -63.1134 148° Southeast  Level Estimated
11:34AM 1.0165 -63.0423 148° Southeast  Level Estimated
11:35AM 0.9019 -62.9712 148° Southeast  Level Estimated
11:36AM 0.7873 -62.9000 148° Southeast  Level Estimated
11:37AM 0.6726 -62.8289 148° Southeast  Level Estimated
11:38AM 0.5580 -62.7578 148° Southeast  Level Estimated
11:39AM 0.4434 -62.6866 148° Southeast  Level Estimated
11:40AM 0.3288 -62.6155 148° Southeast  Level Estimated
11:41AM 0.2142 -62.5444 148° Southeast  Level Estimated
11:42AM 0.0996 -62.4733 148° Southeast  Level Estimated
11:43AM -0.0151 -62.4021 148° Southeast  Level Estimated
11:44AM -0.1297 -62.3310 148° Southeast  Level Estimated
11:45AM -0.2443 -62.2599 148° Southeast  Level Estimated
11:46AM -0.3589 -62.1888 148° Southeast  Level Estimated
11:47AM -0.4735 -62.1177 148° Southeast  Level Estimated
11:48AM -0.5882 -62.0465 148° Southeast  Level Estimated
11:49AM -0.7028 -61.9754 148° Southeast  Level Estimated
11:50AM -0.8174 -61.9043 148° Southeast  Level Estimated
11:51AM -0.9320 -61.8331 148° Southeast  Level Estimated
11:52AM -1.0467 -61.7620 148° Southeast  Level Estimated
11:53AM -1.1613 -61.6908 148° Southeast  Level Estimated
11:54AM -1.2759 -61.6197 148° Southeast  Level Estimated
11:55AM -1.3905 -61.5485 148° Southeast  Level Estimated
11:56AM -1.5051 -61.4774 148° Southeast  Level Estimated
11:57AM -1.6197 -61.4062 148° Southeast  Level Estimated
11:58AM -1.7343 -61.3350 148° Southeast  Level Estimated
11:59AM -1.8489 -61.2638 148° Southeast  Level Estimated
12:00PM -1.9635 -61.1926 148° Southeast  Level Estimated
12:01PM -2.0781 -61.1214 148° Southeast  Level Estimated
12:02PM -2.1927 -61.0502 148° Southeast  Level Estimated
12:03PM -2.3073 -60.9790 148° Southeast  Level Estimated
12:04PM -2.4219 -60.9077 148° Southeast  Level Estimated
12:05PM -2.5364 -60.8365 148° Southeast  Level Estimated
12:06PM -2.6510 -60.7652 148° Southeast  Level Estimated
12:07PM -2.7656 -60.6939 148° Southeast  Level Estimated
12:08PM -2.8802 -60.6226 148° Southeast  Level Estimated
12:09PM -2.9947 -60.5513 148° Southeast  Level Estimated
12:10PM -3.1093 -60.4800 148° Southeast  Level Estimated
12:11PM -3.2239 -60.4087 148° Southeast  Level Estimated
12:12PM -3.3384 -60.3373 148° Southeast  Level Estimated
12:13PM -3.4529 -60.2659 148° Southeast  Level Estimated
12:14PM -3.5675 -60.1945 148° Southeast  Level Estimated
12:15PM -3.6820 -60.1231 148° Southeast  Level Estimated
12:16PM -3.7965 -60.0517 148° Southeast  Level Estimated
12:17PM -3.9111 -59.9803 148° Southeast  Level Estimated
12:18PM -4.0256 -59.9088 148° Southeast  Level Estimated
12:19PM -4.1401 -59.8373 148° Southeast  Level Estimated
12:20PM -4.2546 -59.7658 148° Southeast  Level Estimated
12:21PM -4.3691 -59.6943 148° Southeast  Level Estimated
12:22PM -4.4836 -59.6227 148° Southeast  Level Estimated
12:23PM -4.5981 -59.5512 148° Southeast  Level Estimated
12:24PM -4.7125 -59.4796 148° Southeast  Level Estimated
12:25PM -4.8270 -59.4080 148° Southeast  Level Estimated
12:26PM -4.9415 -59.3363 148° Southeast  Level Estimated
12:27PM -5.0559 -59.2646 148° Southeast  Level Estimated
12:28PM -5.1704 -59.1930 148° Southeast  Level Estimated
12:29PM -5.2848 -59.1212 148° Southeast  Level Estimated
12:30PM -5.3992 -59.0495 148° Southeast  Level Estimated
12:31PM -5.5137 -58.9777 148° Southeast  Level Estimated
12:32PM -5.6281 -58.9059 148° Southeast  Level Estimated
12:33PM -5.7425 -58.8341 148° Southeast  Level Estimated
12:34PM -5.8569 -58.7622 148° Southeast  Level Estimated
12:35PM -5.9713 -58.6904 148° Southeast  Level Estimated
12:36PM -6.0856 -58.6185 148° Southeast  Level Estimated
12:37PM -6.2000 -58.5465 148° Southeast  Level Estimated
12:38PM -6.3144 -58.4745 148° Southeast  Level Estimated
12:39PM -6.4287 -58.4025 148° Southeast  Level Estimated
12:40PM -6.5430 -58.3305 148° Southeast  Level Estimated
12:41PM -6.6574 -58.2584 148° Southeast  Level Estimated
12:42PM -6.7717 -58.1863 148° Southeast  Level Estimated
12:43PM -6.8860 -58.1142 148° Southeast  Level Estimated
12:44PM -7.0003 -58.0420 148° Southeast  Level Estimated
12:45PM -7.1146 -57.9698 148° Southeast  Level Estimated
12:46PM -7.2288 -57.8975 148° Southeast  Level Estimated
12:47PM -7.3431 -57.8252 148° Southeast  Level Estimated
12:48PM -7.4574 -57.7529 148° Southeast  Level Estimated
12:49PM -7.5716 -57.6805 148° Southeast  Level Estimated
12:50PM -7.6858 -57.6082 148° Southeast  Level Estimated
12:51PM -7.8000 -57.5357 148° Southeast  Level Estimated
12:52PM -7.9142 -57.4632 148° Southeast  Level Estimated
12:53PM -8.0284 -57.3907 148° Southeast  Level Estimated
12:54PM -8.1426 -57.3181 148° Southeast  Level Estimated
12:55PM -8.2568 -57.2455 148° Southeast  Level Estimated
12:56PM -8.3709 -57.1729 148° Southeast  Level Estimated
12:57PM -8.4851 -57.1002 148° Southeast  Level Estimated
12:58PM -8.5992 -57.0275 148° Southeast  Level Estimated
12:59PM -8.7133 -56.9547 148° Southeast  Level Estimated
01:00PM -8.8274 -56.8819 148° Southeast  Level Estimated
01:01PM -8.9415 -56.8091 148° Southeast  Level Estimated
01:02PM -9.0555 -56.7362 148° Southeast  Level Estimated
01:03PM -9.1696 -56.6632 148° Southeast  Level Estimated
01:04PM -9.2836 -56.5902 148° Southeast  Level Estimated
01:05PM -9.3976 -56.5172 148° Southeast  Level Estimated
01:06PM -9.5117 -56.4441 148° Southeast  Level Estimated
01:07PM -9.6257 -56.3709 148° Southeast  Level Estimated
01:08PM -9.7396 -56.2977 148° Southeast  Level Estimated
01:09PM -9.8536 -56.2245 148° Southeast  Level Estimated
01:10PM -9.9675 -56.1512 148° Southeast  Level Estimated
01:11PM -10.0815 -56.0779 148° Southeast  Level Estimated
01:12PM -10.1954 -56.0045 148° Southeast  Level Estimated
01:13PM -10.3093 -55.9310 148° Southeast  Level Estimated
01:14PM -10.4232 -55.8575 148° Southeast  Level Estimated
01:15PM -10.5370 -55.7840 148° Southeast  Level Estimated
01:16PM -10.6509 -55.7104 148° Southeast  Level Estimated
01:17PM -10.7647 -55.6367 148° Southeast  Level Estimated
01:18PM -10.8785 -55.5630 148° Southeast  Level Estimated
01:19PM -10.9923 -55.4892 148° Southeast  Level Estimated
01:20PM -11.1061 -55.4154 148° Southeast  Level Estimated
01:21PM -11.2199 -55.3415 148° Southeast  Level Estimated
01:22PM -11.3336 -55.2675 147° Southeast  Level Estimated
01:23PM -11.4473 -55.1935 147° Southeast  Level Estimated
01:24PM -11.5610 -55.1194 147° Southeast  Level Estimated
01:25PM -11.6747 -55.0453 147° Southeast  Level Estimated
01:26PM -11.7884 -54.9711 147° Southeast  Level Estimated
01:27PM -11.9021 -54.8969 147° Southeast  Level Estimated
01:28PM -12.0157 -54.8226 147° Southeast  Level Estimated
01:29PM -12.1293 -54.7482 147° Southeast  Level Estimated
01:30PM -12.2429 -54.6738 147° Southeast  Level Estimated
01:31PM -12.3565 -54.5993 147° Southeast  Level Estimated
01:32PM -12.4700 -54.5247 147° Southeast  Level Estimated
01:33PM -12.5835 -54.4501 147° Southeast  Level Estimated
01:34PM -12.6970 -54.3754 147° Southeast  Level Estimated
01:35PM -12.8105 -54.3006 147° Southeast  Level Estimated
01:36PM -12.9240 -54.2258 147° Southeast  Level Estimated
01:37PM -13.0374 -54.1509 147° Southeast  Level Estimated
01:38PM -13.1509 -54.0759 147° Southeast  Level Estimated
01:39PM -13.2643 -54.0009 147° Southeast  Level Estimated
01:40PM -13.3776 -53.9257 147° Southeast  Level Estimated
01:41PM -13.4910 -53.8506 147° Southeast  Level Estimated
01:42PM -13.6043 -53.7753 147° Southeast  Level Estimated
01:43PM -13.7176 -53.7000 147° Southeast  Level Estimated
01:44PM -13.8309 -53.6246 147° Southeast  Level Estimated
01:45PM -13.9442 -53.5491 147° Southeast  Level Estimated
01:46PM -14.0574 -53.4736 147° Southeast  Level Estimated
01:47PM -14.1707 -53.3980 147° Southeast  Level Estimated
01:48PM -14.2839 -53.3223 147° Southeast  Level Estimated
01:49PM -14.3970 -53.2465 147° Southeast  Level Estimated
01:50PM -14.5102 -53.1707 147° Southeast  Level Estimated
01:51PM -14.6233 -53.0947 147° Southeast  Level Estimated
01:52PM -14.7364 -53.0187 147° Southeast  Level Estimated
01:53PM -14.8495 -52.9426 147° Southeast  Level Estimated
01:54PM -14.9625 -52.8665 147° Southeast  Level Estimated
01:55PM -15.0755 -52.7902 147° Southeast  Level Estimated
01:56PM -15.1885 -52.7139 147° Southeast  Level Estimated
01:57PM -15.3015 -52.6375 147° Southeast  Level Estimated
01:58PM -15.4145 -52.5610 147° Southeast  Level Estimated
01:59PM -15.5274 -52.4845 147° Southeast  Level Estimated
02:00PM -15.6403 -52.4078 147° Southeast  Level Estimated
02:01PM -15.7531 -52.3311 147° Southeast  Level Estimated
02:02PM -15.8660 -52.2543 147° Southeast  Level Estimated
02:03PM -15.9788 -52.1773 147° Southeast  Level Estimated
02:04PM -16.0916 -52.1003 147° Southeast  Level Estimated
02:05PM -16.2043 -52.0233 147° Southeast  Level Estimated
02:06PM -16.3171 -51.9461 147° Southeast  Level Estimated
02:07PM -16.4298 -51.8688 147° Southeast  Level Estimated
02:08PM -16.5424 -51.7915 147° Southeast  Level Estimated
02:09PM -16.6551 -51.7141 147° Southeast  Level Estimated
02:10PM -16.7677 -51.6365 147° Southeast  Level Estimated
02:11PM -16.8803 -51.5589 147° Southeast  Level Estimated
02:12PM -16.9928 -51.4812 147° Southeast  Level Estimated
02:13PM -17.1054 -51.4034 147° Southeast  Level Estimated
02:14PM -17.2179 -51.3255 147° Southeast  Level Estimated
02:15PM -17.3304 -51.2475 146° Southeast  Level Estimated
02:16PM -17.4428 -51.1694 146° Southeast  Level Estimated
02:17PM -17.5552 -51.0912 146° Southeast  Level Estimated
02:18PM -17.6676 -51.0129 146° Southeast  Level Estimated
02:19PM -17.7799 -50.9345 146° Southeast  Level Estimated
02:20PM -17.8922 -50.8560 146° Southeast  Level Estimated
02:21PM -18.0045 -50.7774 146° Southeast  Level Estimated
02:22PM -18.1168 -50.6988 146° Southeast  Level Estimated
02:23PM -18.2290 -50.6200 146° Southeast  Level Estimated
02:24PM -18.3412 -50.5411 146° Southeast  Level Estimated
02:25PM -18.4533 -50.4621 146° Southeast  Level Estimated
02:26PM -18.5655 -50.3830 146° Southeast  Level Estimated
02:27PM -18.6775 -50.3038 146° Southeast  Level Estimated
02:28PM -18.7896 -50.2245 146° Southeast  Level Estimated
02:29PM -18.9016 -50.1451 146° Southeast  Level Estimated
02:30PM -19.0136 -50.0656 146° Southeast  Level Estimated
02:31PM -19.1256 -49.9860 146° Southeast  Level Estimated
02:32PM -19.2375 -49.9062 146° Southeast  Level Estimated
02:33PM -19.3494 -49.8264 146° Southeast  Level Estimated
02:34PM -19.4612 -49.7464 146° Southeast  Level Estimated
02:35PM -19.5730 -49.6664 146° Southeast  Level Estimated
02:36PM -19.6848 -49.5862 146° Southeast  Level Estimated
02:37PM -19.7966 -49.5059 146° Southeast  Level Estimated
02:38PM -19.9083 -49.4255 146° Southeast  Level Estimated
02:39PM -20.0199 -49.3450 146° Southeast  Level Estimated
02:40PM -20.1316 -49.2644 146° Southeast  Level Estimated
02:41PM -20.2432 -49.1837 146° Southeast  Level Estimated
02:42PM -20.3547 -49.1028 146° Southeast  Level Estimated
02:43PM -20.4663 -49.0219 146° Southeast  Level Estimated
02:44PM -20.5778 -48.9408 146° Southeast  Level Estimated
02:45PM -20.6892 -48.8596 146° Southeast  Level Estimated
02:46PM -20.8006 -48.7782 146° Southeast  Level Estimated
02:47PM -20.9120 -48.6968 146° Southeast  Level Estimated
02:48PM -21.0233 -48.6152 146° Southeast  Level Estimated
02:49PM -21.1346 -48.5335 146° Southeast  Level Estimated
02:50PM -21.2459 -48.4517 146° Southeast  Level Estimated
02:51PM -21.3571 -48.3698 146° Southeast  Level Estimated
02:52PM -21.4683 -48.2877 146° Southeast  Level Estimated
02:53PM -21.5794 -48.2055 145° Southeast  Level Estimated
02:54PM -21.6905 -48.1232 145° Southeast  Level Estimated
02:55PM -21.8016 -48.0408 145° Southeast  Level Estimated
02:56PM -21.9126 -47.9582 145° Southeast  Level Estimated
02:57PM -22.0236 -47.8755 145° Southeast  Level Estimated
02:58PM -22.1345 -47.7927 145° Southeast  Level Estimated
02:59PM -22.2454 -47.7098 145° Southeast  Level Estimated
03:00PM -22.3563 -47.6267 145° Southeast  Level Estimated
03:01PM -22.4671 -47.5434 145° Southeast  Level Estimated
03:02PM -22.5778 -47.4601 145° Southeast  Level Estimated
03:03PM -22.6885 -47.3766 145° Southeast  Level Estimated
03:04PM -22.7992 -47.2930 145° Southeast  Level Estimated
03:05PM -22.9098 -47.2092 145° Southeast  Level Estimated
03:06PM -23.0082 -47.1347 145° Southeast  Level Estimated
03:07PM -23.0082 -47.1347 335° Northwest  Level Estimated
03:08PM -23.0082 -47.1347 335° Northwest  Level Estimated
03:09PM -23.0082 -47.1347 335° Northwest  Level Estimated
03:10PM -23.0082 -47.1347 335° Northwest  Level Estimated
03:11PM -23.0082 -47.1347 335° Northwest  Level Estimated
03:12PM -23.0082 -47.1347 335° Northwest  Level Estimated